Portada
METAR-TAF:

METAR-TAF

Aeroports :

Iekaterinburg, Rússia

latitud: 56-50N, longitud: 060-38E, altitud: 237 m

Observació

L'informe es va fer fa 13 minuts, a les 21:00 UTC
Vent 6 kt del Oest
Temperatura 16°C
Humitat 94%
Pressió 1007 hPa
Visibilitat: 9000 m
Núvols disperses a una alçada de 2100 ft
Núvols disperses a una alçada de 4300 ft

METAR: USSS 142100Z 28003MPS 9000 SCT021 SCT043 16/15 Q1007 R26L/290050 R26R/290037 NOSIG RMK QFE735/0980

Hora: 02:13 (21:13 UTC)

Pronòstic

L'informe es va fer fa 1 hora i 14 minuts, a les 19:59 UTC
Pronòstic vàlid del 14 a les 21 UTC al 15 a les 21 UTC
Vent 6 kt del Oest/Nord-Oest amb ràfegues de 17 kt
Visibilitat: 6000 m
Cel ennuvolat a una alçada de 1500 ft
Cel ennuvolat a una alçada de 2000 ft, Cumulonimbus.
xàfecs de pluja
Evolucionant progressivament
l' 15 a les 04 UTC al 15 a les 06 UTC
Visibilitat 10 km o més

TAF: USSS 141959Z 1421/1521 29003G09MPS 6000 -SHRA BKN015 BKN020CB BECMG 1504/1506 9999 NSW

Observacions i pronòstics meteorològics de més de 4000 aeroports (METAR i TAF).

Les estacions disponibles són els punts grocs i vermells al mapa.

Posi el ratolí al punt desitjat per veure el nom de l'estació.

Feu clic per veure les observacions i els pronòstics meteorològics.

Per canviar el mapa: feu clic els botons verds amb una creu de color negre per apropar; al botó verd amb un guió per allunyar la imatge; o en les fletxes verdes per a mapes adjacents.


METAR-TAF: